createdAt,value
2018-09-13T00:00:05.432Z,98350.45
2018-09-13T00:01:08.984Z,98352.55
2018-09-13T00:02:11.716Z,98354.47
2018-09-13T00:03:14.521Z,98354.45
2018-09-13T00:04:17.264Z,98354.54
2018-09-13T00:05:20.381Z,98358.08
2018-09-13T00:06:23.226Z,98354.09
2018-09-13T00:07:25.946Z,98359.03
2018-09-13T00:08:29.574Z,98355.05
2018-09-13T00:09:33.074Z,98358.08
2018-09-13T00:10:35.883Z,98350.81
2018-09-13T00:11:39.303Z,98352.33
2018-09-13T00:12:42.059Z,98352.33
2018-09-13T00:13:44.919Z,98354.52
2018-09-13T00:14:47.689Z,98361.23
2018-09-13T00:15:50.459Z,98358.39
2018-09-13T00:16:53.182Z,98356.88
2018-09-13T00:17:56.205Z,98352.28
2018-09-13T00:18:58.982Z,98352.92
2018-09-13T00:20:01.767Z,98347.14
2018-09-13T00:21:04.552Z,98341.95
2018-09-13T00:22:07.363Z,98344.55
2018-09-13T00:23:10.380Z,98336.36
2018-09-13T00:24:13.441Z,98337.73
2018-09-13T00:25:16.266Z,98333.08
2018-09-13T00:26:19.029Z,98335.64
2018-09-13T00:27:21.756Z,98336.42
2018-09-13T00:28:24.529Z,98339.03
2018-09-13T00:29:27.277Z,98328.39
2018-09-13T00:30:30.369Z,98335.55
2018-09-13T00:31:33.187Z,98333.41
2018-09-13T00:32:35.930Z,98334.63
2018-09-13T00:33:38.653Z,98333.22
2018-09-13T00:34:41.390Z,98337.34
2018-09-13T00:35:44.150Z,98335.50
2018-09-13T00:36:47.222Z,98340.28
2018-09-13T00:37:50.019Z,98337.95
2018-09-13T00:38:52.791Z,98349.34
2018-09-13T00:39:55.527Z,98345.81
2018-09-13T00:40:58.302Z,98340.87
2018-09-13T00:42:01.473Z,98345.59
2018-09-13T00:43:04.897Z,98346.14
2018-09-13T00:44:07.769Z,98348.63
2018-09-13T00:45:10.547Z,98343.27
2018-09-13T00:46:13.308Z,98343.59
2018-09-13T00:47:16.034Z,98343.59
2018-09-13T00:48:19.103Z,98346.16
2018-09-13T00:49:21.871Z,98341.89
2018-09-13T00:50:24.625Z,98344.12
2018-09-13T00:51:27.454Z,98342.53
2018-09-13T00:52:30.204Z,98344.58
2018-09-13T00:53:32.980Z,98342.45
2018-09-13T00:54:36.036Z,98345.93
2018-09-13T00:55:38.806Z,98342.81
2018-09-13T00:56:42.104Z,98337.45
2018-09-13T00:57:44.884Z,98343.27
2018-09-13T00:58:47.678Z,98341.38
2018-09-13T00:59:50.437Z,98342.08
2018-09-13T01:00:53.485Z,98349.91
2018-09-13T01:01:56.284Z,98351.15
2018-09-13T01:02:59.096Z,98346.80
2018-09-13T01:04:02.837Z,98349.32
2018-09-13T01:05:05.648Z,98345.77
2018-09-13T01:06:08.410Z,98343.80
2018-09-13T01:07:11.491Z,98343.80
2018-09-13T01:08:14.259Z,98341.25
2018-09-13T01:09:17.022Z,98348.23
2018-09-13T01:10:19.809Z,98345.72
2018-09-13T01:11:22.550Z,98346.06
2018-09-13T01:12:26.025Z,98350.95
2018-09-13T01:13:29.075Z,98345.97
2018-09-13T01:14:31.846Z,98354.13
2018-09-13T01:15:35.160Z,98348.59
2018-09-13T01:16:37.957Z,98339.42
2018-09-13T01:17:40.735Z,98347.22
2018-09-13T01:18:43.499Z,98339.87
2018-09-13T01:19:46.894Z,98343.52
2018-09-13T01:20:49.662Z,98342.89
2018-09-13T01:21:52.404Z,98338.30
2018-09-13T01:22:55.181Z,98339.47
2018-09-13T01:23:57.944Z,98350.80
2018-09-13T01:25:00.716Z,98335.13
2018-09-13T01:26:03.842Z,98341.18
2018-09-13T01:27:06.650Z,98340.79
2018-09-13T01:28:09.414Z,98333.98
2018-09-13T01:29:12.173Z,98333.89
2018-09-13T01:30:14.938Z,98334.13
2018-09-13T01:31:17.707Z,98332.68
2018-09-13T01:32:20.929Z,98334.30
2018-09-13T01:33:23.689Z,98336.41
2018-09-13T01:34:26.432Z,98339.95
2018-09-13T01:35:29.238Z,98333.69
2018-09-13T01:36:32.049Z,98337.16
2018-09-13T01:37:34.810Z,98334.18
2018-09-13T01:38:37.859Z,98331.66
2018-09-13T01:39:40.614Z,98332.74
2018-09-13T01:40:43.383Z,98325.03
2018-09-13T01:41:46.177Z,98328.37
2018-09-13T01:42:48.919Z,98332.05
2018-09-13T01:43:51.656Z,98332.41
2018-09-13T01:44:54.720Z,98333.50
2018-09-13T01:45:57.512Z,98333.95
2018-09-13T01:47:00.285Z,98326.06
2018-09-13T01:48:03.048Z,98333.08
2018-09-13T01:49:05.838Z,98326.85
2018-09-13T01:50:08.668Z,98325.34
2018-09-13T01:51:11.722Z,98328.81
2018-09-13T01:52:14.505Z,98324.66
2018-09-13T01:53:17.268Z,98320.99
2018-09-13T01:54:20.029Z,98317.14
2018-09-13T01:55:22.770Z,98326.27
2018-09-13T01:56:26.870Z,98321.55
2018-09-13T01:57:30.001Z,98323.66
2018-09-13T01:58:32.799Z,98323.02
2018-09-13T01:59:35.548Z,98326.69
2018-09-13T02:00:38.581Z,98325.88
2018-09-13T02:01:41.376Z,98324.80
2018-09-13T02:02:44.158Z,98323.60
2018-09-13T02:03:47.214Z,98322.30
2018-09-13T02:04:51.589Z,98321.54
2018-09-13T02:05:54.392Z,98328.06
2018-09-13T02:06:57.164Z,98329.33
2018-09-13T02:08:00.153Z,98332.80
2018-09-13T02:09:02.967Z,98320.58
2018-09-13T02:10:05.994Z,98328.77
2018-09-13T02:11:08.873Z,98325.61
2018-09-13T02:12:11.626Z,98322.86
2018-09-13T02:13:14.357Z,98318.28
2018-09-13T02:14:17.125Z,98316.09
2018-09-13T02:15:19.873Z,98317.64
2018-09-13T02:16:23.129Z,98313.02
2018-09-13T02:17:26.456Z,98318.01
2018-09-13T02:18:29.178Z,98318.11
2018-09-13T02:19:32.327Z,98314.98
2018-09-13T02:20:35.389Z,98320.12
2018-09-13T02:21:38.501Z,98317.17
2018-09-13T02:22:41.962Z,98318.23
2018-09-13T02:23:44.688Z,98313.70
2018-09-13T02:24:47.434Z,98317.30
2018-09-13T02:25:50.278Z,98316.70
2018-09-13T02:26:53.245Z,98316.85
2018-09-13T02:27:56.569Z,98312.27
2018-09-13T02:28:59.956Z,98313.76
2018-09-13T02:30:02.691Z,98324.61
2018-09-13T02:31:05.451Z,98320.06
2018-09-13T02:32:08.267Z,98318.83
2018-09-13T02:33:11.023Z,98320.12
2018-09-13T02:34:13.804Z,98316.02
2018-09-13T02:35:16.880Z,98317.12
2018-09-13T02:36:19.616Z,98314.28
2018-09-13T02:37:22.357Z,98312.44
2018-09-13T02:38:25.116Z,98315.45
2018-09-13T02:39:27.880Z,98315.36
2018-09-13T02:40:30.668Z,98320.62
2018-09-13T02:41:33.740Z,98311.20
2018-09-13T02:42:36.541Z,98311.41
2018-09-13T02:43:39.295Z,98318.50
2018-09-13T02:44:42.060Z,98313.89
2018-09-13T02:45:44.818Z,98311.14
2018-09-13T02:46:47.638Z,98311.09
2018-09-13T02:47:50.696Z,98309.36
2018-09-13T02:48:53.456Z,98309.36
2018-09-13T02:49:56.207Z,98304.00
2018-09-13T02:50:58.970Z,98308.21
2018-09-13T02:52:01.860Z,98307.88
2018-09-13T02:53:04.656Z,98305.27
2018-09-13T02:54:07.727Z,98309.60
2018-09-13T02:55:10.544Z,98305.16
2018-09-13T02:56:13.594Z,98305.66
2018-09-13T02:57:16.364Z,98302.55
2018-09-13T02:58:19.148Z,98293.16
2018-09-13T02:59:21.890Z,98295.81
2018-09-13T03:00:24.954Z,98293.55
2018-09-13T03:01:27.780Z,98295.42
2018-09-13T03:02:30.576Z,98295.30
2018-09-13T03:03:33.484Z,98293.42
2018-09-13T03:04:36.252Z,98291.03
2018-09-13T03:05:39.041Z,98295.56
2018-09-13T03:06:42.089Z,98290.12
2018-09-13T03:07:44.864Z,98290.98
2018-09-13T03:08:48.592Z,98292.63
2018-09-13T03:09:51.344Z,98291.71
2018-09-13T03:10:54.156Z,98285.72
2018-09-13T03:11:56.937Z,98291.40
2018-09-13T03:13:00.013Z,98294.43
2018-09-13T03:14:03.056Z,98298.51
2018-09-13T03:15:06.042Z,98302.67
2018-09-13T03:16:08.804Z,98299.33
2018-09-13T03:17:12.608Z,98304.55
2018-09-13T03:18:15.457Z,98311.78
2018-09-13T03:19:18.733Z,98306.64
2018-09-13T03:20:21.572Z,98311.68
2018-09-13T03:21:24.380Z,98309.95
2018-09-13T03:22:27.201Z,98310.44
2018-09-13T03:23:30.108Z,98310.31
2018-09-13T03:24:32.862Z,98303.98
2018-09-13T03:25:36.149Z,98306.49
2018-09-13T03:26:38.920Z,98298.75
2018-09-13T03:27:41.780Z,98306.04
2018-09-13T03:28:44.633Z,98299.77
2018-09-13T03:29:47.501Z,98290.88
2018-09-13T03:30:50.358Z,98299.25
2018-09-13T03:31:53.597Z,98300.78
2018-09-13T03:32:56.464Z,98294.97
2018-09-13T03:33:59.349Z,98305.72
2018-09-13T03:35:02.157Z,98302.65
2018-09-13T03:36:04.906Z,98305.84
2018-09-13T03:37:07.696Z,98304.25
2018-09-13T03:38:10.864Z,98302.42
2018-09-13T03:39:13.997Z,98293.14
2018-09-13T03:40:16.778Z,98290.66
2018-09-13T03:41:19.557Z,98287.94
2018-09-13T03:42:22.332Z,98280.91
2018-09-13T03:43:25.142Z,98283.56
2018-09-13T03:44:28.313Z,98278.31
2018-09-13T03:45:33.107Z,98277.13
2018-09-13T03:46:36.257Z,98269.66
2018-09-13T03:47:39.132Z,98273.27
2018-09-13T03:48:41.894Z,98264.44
2018-09-13T03:49:44.661Z,98263.02
2018-09-13T03:50:48.154Z,98263.98
2018-09-13T03:51:51.950Z,98257.38
2018-09-13T03:52:54.722Z,98264.81
2018-09-13T03:53:57.529Z,98264.34
2018-09-13T03:55:00.480Z,98259.61
2018-09-13T03:56:03.264Z,98261.88
2018-09-13T03:57:06.436Z,98262.72
2018-09-13T03:58:09.212Z,98258.25
2018-09-13T03:59:12.064Z,98256.91
2018-09-13T04:00:14.833Z,98260.14
2018-09-13T04:01:17.620Z,98255.28
2018-09-13T04:02:20.432Z,98259.39
2018-09-13T04:03:23.390Z,98253.34
2018-09-13T04:04:26.245Z,98253.44
2018-09-13T04:05:29.021Z,98260.70
2018-09-13T04:06:31.830Z,98256.31
2018-09-13T04:07:35.541Z,98260.79
2018-09-13T04:08:38.779Z,98259.32
2018-09-13T04:09:41.549Z,98257.95
2018-09-13T04:10:44.336Z,98257.72
2018-09-13T04:11:47.068Z,98255.16
2018-09-13T04:12:49.994Z,98252.91
2018-09-13T04:13:53.284Z,98252.78
2018-09-13T04:14:56.352Z,98253.56
2018-09-13T04:15:59.105Z,98254.88
2018-09-13T04:17:01.891Z,98253.31
2018-09-13T04:18:04.647Z,98251.48
2018-09-13T04:19:07.410Z,98250.63
2018-09-13T04:20:10.156Z,98253.14
2018-09-13T04:21:13.624Z,98252.16
2018-09-13T04:22:17.144Z,98250.42
2018-09-13T04:23:19.889Z,98253.16
2018-09-13T04:24:22.632Z,98257.47
2018-09-13T04:25:25.371Z,98249.59
2018-09-13T04:26:28.320Z,98245.02
2018-09-13T04:27:31.382Z,98244.92
2018-09-13T04:28:34.260Z,98246.30
2018-09-13T04:29:36.985Z,98242.86
2018-09-13T04:30:39.720Z,98242.23
2018-09-13T04:31:43.616Z,98251.39
2018-09-13T04:32:48.054Z,98252.07
2018-09-13T04:33:51.274Z,98251.39
2018-09-13T04:34:54.260Z,98252.80
2018-09-13T04:35:57.353Z,98253.03
2018-09-13T04:37:00.891Z,98255.69
2018-09-13T04:38:03.716Z,98251.89
2018-09-13T04:39:06.476Z,98250.98
2018-09-13T04:40:09.582Z,98248.83
2018-09-13T04:41:12.367Z,98244.84
2018-09-13T04:42:15.136Z,98244.06
2018-09-13T04:43:17.927Z,98247.09
2018-09-13T04:44:20.664Z,98244.89
2018-09-13T04:45:23.421Z,98249.51
2018-09-13T04:46:26.481Z,98246.81
2018-09-13T04:47:29.264Z,98253.22
2018-09-13T04:48:32.035Z,98256.11
2018-09-13T04:49:34.754Z,98250.48
2018-09-13T04:50:37.515Z,98249.92
2018-09-13T04:51:40.259Z,98247.09
2018-09-13T04:52:43.317Z,98243.02
2018-09-13T04:53:46.078Z,98242.95
2018-09-13T04:54:48.825Z,98240.25
2018-09-13T04:55:51.665Z,98238.08
2018-09-13T04:56:54.388Z,98239.97
2018-09-13T04:57:57.148Z,98241.34
2018-09-13T04:59:01.138Z,98241.53
2018-09-13T05:00:03.897Z,98240.21
2018-09-13T05:01:06.645Z,98241.95
2018-09-13T05:02:09.399Z,98243.65
2018-09-13T05:03:13.401Z,98242.00
2018-09-13T05:04:16.288Z,98240.63
2018-09-13T05:05:19.350Z,98242.31
2018-09-13T05:06:22.089Z,98239.87
2018-09-13T05:07:24.841Z,98241.94
2018-09-13T05:08:27.600Z,98238.20
2018-09-13T05:09:30.357Z,98236.13
2018-09-13T05:10:33.160Z,98237.51
2018-09-13T05:11:36.489Z,98239.05
2018-09-13T05:12:39.244Z,98229.80
2018-09-13T05:13:42.008Z,98229.80
2018-09-13T05:14:44.792Z,98229.86
2018-09-13T05:15:47.613Z,98220.98
2018-09-13T05:16:50.632Z,98222.22
2018-09-13T05:17:55.435Z,98226.17
2018-09-13T05:18:58.183Z,98229.01
2018-09-13T05:20:01.956Z,98232.14
2018-09-13T05:21:04.788Z,98231.40
2018-09-13T05:22:07.635Z,98232.55
2018-09-13T05:23:10.542Z,98235.41
2018-09-13T05:24:13.744Z,98238.91
2018-09-13T05:25:17.430Z,98245.57
2018-09-13T05:26:20.231Z,98241.91
2018-09-13T05:27:23.025Z,98256.05
2018-09-13T05:28:25.810Z,98252.23
2018-09-13T05:30:46.317Z,98260.88
2018-09-13T05:44:35.284Z,98263.87
2018-09-13T05:45:38.853Z,98264.69
2018-09-13T05:47:52.539Z,98263.27
2018-09-13T05:48:56.018Z,98267.02
2018-09-13T05:49:59.094Z,98261.55
2018-09-13T05:51:02.695Z,98264.23
2018-09-13T05:52:05.484Z,98268.25
2018-09-13T05:53:08.229Z,98271.14
2018-09-13T05:54:11.236Z,98274.70
2018-09-13T05:55:14.055Z,98275.20
2018-09-13T05:56:17.156Z,98273.83
2018-09-13T05:57:20.011Z,98274.84
2018-09-13T05:58:22.897Z,98278.53
2018-09-13T05:59:25.979Z,98265.23
2018-09-13T06:00:28.797Z,98268.58
2018-09-13T06:01:31.987Z,98278.30
2018-09-13T06:02:36.479Z,98273.30
2018-09-13T06:03:39.626Z,98274.29
2018-09-13T06:04:42.355Z,98270.95
2018-09-13T06:05:59.487Z,98278.82
2018-09-13T06:07:04.987Z,98282.34
2018-09-13T06:08:08.639Z,98274.55
2018-09-13T06:09:13.656Z,98282.66
2018-09-13T06:10:16.492Z,98277.36
2018-09-13T06:11:19.308Z,98282.30
2018-09-13T06:12:22.045Z,98282.52
2018-09-13T06:13:26.384Z,98275.03
2018-09-13T06:14:29.112Z,98278.69
2018-09-13T06:15:32.327Z,98281.13
2018-09-13T06:16:35.890Z,98287.09
2018-09-13T06:17:38.777Z,98272.44
2018-09-13T06:18:42.914Z,98283.86
2018-09-13T06:19:45.732Z,98281.44
2018-09-13T06:20:48.513Z,98284.51
2018-09-13T06:21:52.573Z,98283.36
2018-09-13T06:22:55.337Z,98291.34
2018-09-13T06:23:58.158Z,98283.38
2018-09-13T06:25:02.684Z,98285.27
2018-09-13T06:26:06.258Z,98286.13
2018-09-13T06:27:09.154Z,98285.31
2018-09-13T06:28:12.224Z,98286.05
2018-09-13T06:29:15.133Z,98289.84
2018-09-13T06:30:17.875Z,98290.02
2018-09-13T06:31:20.762Z,98292.18
2018-09-13T06:32:23.541Z,98293.87
2018-09-13T06:33:27.953Z,98295.67
2018-09-13T06:34:30.762Z,98295.67
2018-09-13T06:35:33.578Z,98296.03
2018-09-13T06:36:36.325Z,98297.41
2018-09-13T06:37:40.701Z,98292.05
2018-09-13T06:38:43.447Z,98294.02
2018-09-13T06:39:48.490Z,98300.06
2018-09-13T06:40:51.260Z,98292.36
2018-09-13T06:41:54.669Z,98298.51
2018-09-13T06:42:59.250Z,98297.77
2018-09-13T06:44:02.141Z,98297.18
2018-09-13T06:45:04.915Z,98301.61
2018-09-13T06:46:08.118Z,98300.56
2018-09-13T06:47:10.906Z,98303.08
2018-09-13T06:48:13.801Z,98302.94
2018-09-13T06:49:16.613Z,98305.46
2018-09-13T06:50:19.459Z,98304.45
2018-09-13T06:51:22.266Z,98303.67
2018-09-13T06:52:27.195Z,98307.05
2018-09-13T06:53:29.954Z,98309.60
2018-09-13T06:54:34.984Z,98306.23
2018-09-13T06:55:37.868Z,98305.27
2018-09-13T06:56:42.017Z,98311.05
2018-09-13T06:57:44.795Z,98303.13
2018-09-13T06:58:47.917Z,98308.13
2018-09-13T06:59:50.722Z,98305.91
2018-09-13T07:00:53.645Z,98311.23
2018-09-13T07:01:56.503Z,98309.41
2018-09-13T07:03:00.567Z,98319.58
2018-09-13T07:04:03.325Z,98323.50
2018-09-13T07:05:06.430Z,98320.00
2018-09-13T07:06:09.952Z,98321.87
2018-09-13T07:07:14.030Z,98321.56
2018-09-13T07:08:17.026Z,98318.30
2018-09-13T07:09:19.783Z,98316.05
2018-09-13T07:10:22.647Z,98313.49
2018-09-13T07:11:27.649Z,98309.92
2018-09-13T07:12:30.392Z,98314.16
2018-09-13T07:13:36.744Z,98312.74
2018-09-13T07:14:39.526Z,98320.39
2018-09-13T07:15:42.277Z,98318.05
2018-09-13T07:16:45.010Z,98315.39
2018-09-13T07:17:48.512Z,98313.62
2018-09-13T07:18:51.259Z,98317.92
2018-09-13T07:19:54.009Z,98313.52
2018-09-13T07:20:56.904Z,98318.56
2018-09-13T07:22:00.598Z,98318.28
2018-09-13T07:23:03.328Z,98313.25
2018-09-13T07:24:06.345Z,98318.47
2018-09-13T07:25:09.101Z,98313.20
2018-09-13T07:26:11.857Z,98315.35
2018-09-13T07:27:14.653Z,98304.09
2018-09-13T07:28:17.793Z,98313.61
2018-09-13T07:29:20.574Z,98304.97
2018-09-13T07:30:23.629Z,98309.73
2018-09-13T07:31:26.426Z,98309.63
2018-09-13T07:32:29.282Z,98304.30
2018-09-13T07:33:32.053Z,98305.95
2018-09-13T07:34:34.799Z,98306.67
2018-09-13T07:35:37.613Z,98308.66
2018-09-13T07:36:40.789Z,98312.19
2018-09-13T07:37:43.579Z,98309.64
2018-09-13T07:38:46.567Z,98312.27
2018-09-13T07:39:49.438Z,98314.22
2018-09-13T07:40:52.219Z,98314.95
2018-09-13T07:41:57.998Z,98315.30
2018-09-13T07:43:01.323Z,98319.35
2018-09-13T07:44:04.960Z,98321.89
2018-09-13T07:45:08.347Z,98318.83
2018-09-13T07:46:12.157Z,98314.40
2018-09-13T07:47:15.032Z,98319.75
2018-09-13T07:48:18.753Z,98319.27
2018-09-13T07:49:21.701Z,98319.52
2018-09-13T07:50:24.761Z,98317.61
2018-09-13T07:51:27.662Z,98320.30
2018-09-13T07:52:30.460Z,98322.41
2018-09-13T07:53:33.236Z,98326.06
2018-09-13T07:54:36.332Z,98326.63
2018-09-13T07:55:39.156Z,98331.66
2018-09-13T07:56:42.861Z,98325.06
2018-09-13T07:57:45.628Z,98324.79
2018-09-13T07:58:48.450Z,98325.30
2018-09-13T07:59:51.246Z,98327.28
2018-09-13T08:00:54.319Z,98330.05
2018-09-13T08:02:00.212Z,98328.48
2018-09-13T08:03:02.953Z,98327.75
2018-09-13T08:04:06.769Z,98326.67
2018-09-13T08:05:13.420Z,98327.77
2018-09-13T08:06:16.455Z,98328.89
2018-09-13T08:07:19.565Z,98326.20
2018-09-13T08:08:22.362Z,98322.73
2018-09-13T08:09:25.222Z,98327.25
2018-09-13T08:10:28.843Z,98327.22
2018-09-13T08:11:31.676Z,98325.98
2018-09-13T08:12:35.384Z,98323.03
2018-09-13T08:13:38.690Z,98325.22
2018-09-13T08:14:44.122Z,98324.42
2018-09-13T08:15:48.686Z,98321.25
2018-09-13T08:16:51.676Z,98329.45
2018-09-13T08:17:54.521Z,98324.56
2018-09-13T08:18:58.532Z,98325.88
2018-09-13T08:20:01.695Z,98331.31
2018-09-13T08:21:04.584Z,98327.83
2018-09-13T08:22:10.070Z,98328.27
2018-09-13T08:23:13.686Z,98325.80
2018-09-13T08:24:16.448Z,98325.23
2018-09-13T08:25:22.857Z,98328.33
2018-09-13T08:26:27.490Z,98329.66
2018-09-13T08:27:30.322Z,98327.05
2018-09-13T08:28:33.293Z,98331.09
2018-09-13T08:29:39.108Z,98332.30
2018-09-13T08:30:45.423Z,98330.14
2018-09-13T08:31:48.327Z,98332.60
2018-09-13T08:32:52.937Z,98333.41
2018-09-13T08:33:56.615Z,98331.52
2018-09-13T08:35:00.787Z,98326.23
2018-09-13T08:36:03.515Z,98328.27
2018-09-13T08:37:06.325Z,98323.13
2018-09-13T08:38:09.154Z,98327.09
2018-09-13T08:39:13.137Z,98332.98
2018-09-13T08:40:16.729Z,98330.02
2018-09-13T08:41:19.572Z,98325.30
2018-09-13T08:42:24.331Z,98329.28
2018-09-13T08:43:30.488Z,98329.22
2018-09-13T08:44:34.387Z,98331.97
2018-09-13T08:45:38.507Z,98332.42
2018-09-13T08:46:44.953Z,98334.52
2018-09-13T08:47:47.973Z,98331.17
2018-09-13T08:48:52.892Z,98332.05
2018-09-13T08:49:55.684Z,98333.43
2018-09-13T08:50:58.502Z,98332.91
2018-09-13T08:52:01.818Z,98334.73
2018-09-13T08:53:04.594Z,98334.43
2018-09-13T08:54:09.316Z,98335.95
2018-09-13T08:55:12.132Z,98336.74
2018-09-13T08:56:15.023Z,98342.17
2018-09-13T08:57:17.884Z,98336.59
2018-09-13T08:58:21.038Z,98332.47
2018-09-13T08:59:24.444Z,98328.44
2018-09-13T09:00:27.238Z,98322.13
2018-09-13T09:01:30.040Z,98323.05
2018-09-13T09:02:32.784Z,98328.36
2018-09-13T09:03:35.583Z,98330.16
2018-09-13T09:04:38.791Z,98324.16
2018-09-13T09:05:42.400Z,98324.28
2018-09-13T09:06:45.300Z,98323.08
2018-09-13T09:07:48.131Z,98320.11
2018-09-13T09:08:50.841Z,98318.73
2018-09-13T09:09:53.602Z,98324.08
2018-09-13T09:10:57.227Z,98322.75
2018-09-13T09:11:59.992Z,98324.72
2018-09-13T09:13:03.407Z,98327.77
2018-09-13T09:14:06.271Z,98326.33
2018-09-13T09:15:09.044Z,98330.02
2018-09-13T09:16:12.580Z,98330.23
2018-09-13T09:17:15.891Z,98332.09
2018-09-13T09:18:18.661Z,98328.78
2018-09-13T09:19:21.890Z,98328.56
2018-09-13T09:20:24.691Z,98333.21
2018-09-13T09:21:27.695Z,98328.15
2018-09-13T09:22:31.208Z,98327.55
2018-09-13T09:23:34.323Z,98327.62
2018-09-13T09:24:37.076Z,98325.47
2018-09-13T09:25:39.847Z,98320.89
2018-09-13T09:26:42.594Z,98322.48
2018-09-13T09:27:45.381Z,98314.09
2018-09-13T09:28:48.312Z,98313.30
2018-09-13T09:29:51.571Z,98324.50
2018-09-13T09:30:55.285Z,98322.94
2018-09-13T09:31:58.734Z,98318.72
2018-09-13T09:33:01.751Z,98318.72
2018-09-13T09:34:04.941Z,98316.27
2018-09-13T09:35:08.054Z,98320.89
2018-09-13T09:36:12.682Z,98318.42
2018-09-13T09:37:16.858Z,98328.62
2018-09-13T09:38:21.712Z,98325.72
2018-09-13T09:39:25.729Z,98329.08
2018-09-13T09:40:28.776Z,98327.83
2018-09-13T09:41:32.540Z,98330.66
2018-09-13T09:42:35.991Z,98330.32
2018-09-13T09:43:38.985Z,98326.12
2018-09-13T09:44:42.058Z,98330.80
2018-09-13T09:45:44.992Z,98322.06
2018-09-13T09:46:48.007Z,98323.56
2018-09-13T09:47:51.061Z,98324.67
2018-09-13T09:48:54.414Z,98325.02
2018-09-13T09:49:57.448Z,98324.45
2018-09-13T09:51:00.264Z,98325.16
2018-09-13T09:52:05.786Z,98323.20
2018-09-13T09:53:09.578Z,98320.75
2018-09-13T09:54:14.508Z,98325.24
2018-09-13T09:55:21.831Z,98324.09
2018-09-13T09:56:24.909Z,98325.02
2018-09-13T09:57:28.469Z,98327.33
2018-09-13T09:58:31.352Z,98331.91
2018-09-13T09:59:34.278Z,98330.83
2018-09-13T10:00:42.027Z,98331.09
2018-09-13T10:01:50.243Z,98331.54
2018-09-13T10:02:53.293Z,98334.66
2018-09-13T10:06:18.029Z,98330.72
2018-09-13T10:07:21.144Z,98321.98
2018-09-13T10:08:24.241Z,98331.49
2018-09-13T10:09:26.932Z,98334.92
2018-09-13T10:10:29.785Z,98329.30
2018-09-13T10:11:32.993Z,98334.21
2018-09-13T10:12:35.756Z,98325.44
2018-09-13T10:13:38.992Z,98328.56
2018-09-13T10:14:42.251Z,98330.94
2018-09-13T10:15:51.046Z,98329.30
2018-09-13T10:16:58.641Z,98329.37
2018-09-13T10:20:13.709Z,98328.84
2018-09-13T10:21:21.347Z,98331.98
2018-09-13T10:22:29.051Z,98330.23
2018-09-13T10:23:36.779Z,98335.81
2018-09-13T10:24:44.521Z,98328.70
2018-09-13T10:25:52.195Z,98325.17
2018-09-13T10:27:00.435Z,98331.91
2018-09-13T10:28:08.098Z,98327.92
2018-09-13T10:29:15.870Z,98322.91
2018-09-13T10:30:23.559Z,98325.52
2018-09-13T10:43:53.846Z,98315.66
2018-09-13T10:45:01.554Z,98316.73
2018-09-13T10:46:09.258Z,98318.73
2018-09-13T10:47:17.169Z,98322.53
2018-09-13T10:48:26.232Z,98318.02
2018-09-13T10:49:33.860Z,98323.06
2018-09-13T10:50:40.403Z,98316.73
2018-09-13T10:51:48.136Z,98314.66
2018-09-13T10:52:53.843Z,98319.05
2018-09-13T10:55:02.800Z,98322.92
2018-09-13T10:56:06.108Z,98325.25
2018-09-13T10:57:14.174Z,98316.07
2018-09-13T10:58:17.142Z,98322.86
2018-09-13T10:59:19.992Z,98317.66
2018-09-13T11:00:22.910Z,98314.83
2018-09-13T11:01:26.052Z,98308.17
2018-09-13T11:02:28.921Z,98310.16
2018-09-13T11:03:32.054Z,98317.30
2018-09-13T11:04:35.357Z,98312.16
2018-09-13T11:05:38.496Z,98314.29
2018-09-13T11:06:41.209Z,98310.84
2018-09-13T11:07:44.283Z,98319.51
2018-09-13T11:08:47.073Z,98320.32
2018-09-13T11:09:49.872Z,98313.21
2018-09-13T11:10:52.981Z,98318.04
2018-09-13T11:11:55.627Z,98317.45
2018-09-13T11:13:05.605Z,98318.78
2018-09-13T11:14:12.508Z,98322.92
2018-09-13T11:15:47.460Z,98325.68
2018-09-13T11:16:50.149Z,98314.69
2018-09-13T11:17:52.796Z,98318.89
2018-09-13T11:18:55.449Z,98310.55
2018-09-13T11:19:58.230Z,98311.17
2018-09-13T11:21:00.895Z,98312.69
2018-09-13T11:22:03.676Z,98315.02
2018-09-13T11:23:06.409Z,98319.49
2018-09-13T11:24:09.090Z,98317.05
2018-09-13T11:25:12.296Z,98316.70
2018-09-13T11:26:15.064Z,98319.61
2018-09-13T11:27:17.766Z,98316.98
2018-09-13T11:28:20.499Z,98319.86
2018-09-13T11:29:23.228Z,98314.19
2018-09-13T11:30:27.038Z,98320.33
2018-09-13T11:31:30.115Z,98319.95
2018-09-13T11:32:32.806Z,98316.64
2018-09-13T11:33:35.825Z,98313.38
2018-09-13T11:34:38.513Z,98314.92
2018-09-13T11:35:41.213Z,98308.87
2018-09-13T11:36:44.017Z,98306.86
2018-09-13T11:37:47.154Z,98307.74
2018-09-13T11:38:49.839Z,98306.33
2018-09-13T11:39:52.590Z,98314.53
2018-09-13T11:40:55.542Z,98309.86
2018-09-13T11:41:58.152Z,98310.45
2018-09-13T11:43:00.876Z,98300.36
2018-09-13T11:44:04.030Z,98309.67
2018-09-13T11:45:07.044Z,98308.92
2018-09-13T11:46:09.702Z,98310.65
2018-09-13T11:47:12.435Z,98306.24
2018-09-13T11:48:15.170Z,98308.63
2018-09-13T11:49:17.886Z,98314.64
2018-09-13T11:50:21.069Z,98310.11
2018-09-13T11:51:23.839Z,98313.01
2018-09-13T11:52:26.549Z,98310.66
2018-09-13T11:53:29.365Z,98304.95
2018-09-13T11:54:32.114Z,98310.02
2018-09-13T11:55:38.616Z,98310.55
2018-09-13T11:56:41.683Z,98310.98
2018-09-13T11:57:44.422Z,98306.25
2018-09-13T11:58:47.139Z,98309.67
2018-09-13T11:59:49.901Z,98305.09
2018-09-13T12:00:52.759Z,98306.31
2018-09-13T12:01:55.513Z,98310.56
2018-09-13T12:02:58.952Z,98304.28
2018-09-13T12:04:01.899Z,98302.72
2018-09-13T12:05:04.658Z,98305.95
2018-09-13T12:06:07.440Z,98308.23
2018-09-13T12:07:10.175Z,98300.56
2018-09-13T12:08:12.882Z,98308.23
2018-09-13T12:09:16.483Z,98309.62
2018-09-13T12:10:19.320Z,98307.48
2018-09-13T12:11:22.191Z,98301.94
2018-09-13T12:12:24.879Z,98304.05
2018-09-13T12:13:27.761Z,98303.03
2018-09-13T12:14:30.490Z,98304.41
2018-09-13T12:15:33.598Z,98309.40
2018-09-13T12:16:36.358Z,98310.40
2018-09-13T12:17:39.076Z,98308.18
2018-09-13T12:18:41.787Z,98308.96
2018-09-13T12:19:44.551Z,98308.45
2018-09-13T12:20:47.247Z,98309.56
2018-09-13T12:21:50.674Z,98309.45
2018-09-13T12:22:53.206Z,98313.11
2018-09-13T12:23:55.861Z,98313.11
2018-09-13T12:24:58.564Z,98312.57
2018-09-13T12:26:01.244Z,98312.19
2018-09-13T12:27:03.974Z,98304.78
2018-09-13T12:28:07.058Z,98300.27
2018-09-13T12:29:10.016Z,98308.81
2018-09-13T12:30:12.827Z,98306.38
2018-09-13T12:31:15.511Z,98303.66
2018-09-13T12:32:18.540Z,98308.42
2018-09-13T12:33:22.613Z,98307.36
2018-09-13T12:34:25.956Z,98312.31
2018-09-13T12:35:28.635Z,98307.80
2018-09-13T12:36:31.932Z,98313.53
2018-09-13T12:37:34.642Z,98316.08
2018-09-13T12:38:37.408Z,98312.66
2018-09-13T12:39:40.600Z,98306.09
2018-09-13T12:40:43.960Z,98310.06
2018-09-13T12:41:46.806Z,98310.31
2018-09-13T12:42:49.541Z,98315.04
2018-09-13T12:43:52.307Z,98310.53
2018-09-13T12:44:55.002Z,98309.09
2018-09-13T12:45:58.276Z,98311.38
2018-09-13T12:47:01.416Z,98311.59
2018-09-13T12:48:04.100Z,98308.61
2018-09-13T12:49:06.815Z,98308.46
2018-09-13T12:50:09.637Z,98312.12
2018-09-13T12:51:12.687Z,98316.17
2018-09-13T12:52:15.384Z,98309.13
2018-09-13T12:53:18.604Z,98309.25
2018-09-13T12:54:21.350Z,98310.72
2018-09-13T12:55:28.131Z,98307.12
2018-09-13T12:56:30.930Z,98303.14